Time;durP1;ratioP1;P1;durP2;ratioP2;P2;SDS_P1;SDS_P2;PMS_P1;PMS_P2;Temp;Humidity;BMP_temperature;BMP_pressure;BME280_temperature;BME280_humidity;BME280_pressure;Samples;Min_cycle;Max_cycle;Signal;HPM_P1;HPM_P2
2021/08/13 00:01:45;;;;;;;4.90;4.50;;;15.80;99.90;;;;;;4967611;28;20050;-88
2021/08/13 00:04:12;;;;;;;5.07;4.68;;;15.80;99.90;;;;;;4979932;28;20101;-88
2021/08/13 00:06:41;;;;;;;5.13;4.72;;;15.80;99.90;;;;;;4986759;28;20432;-88
2021/08/13 00:09:09;;;;;;;7.00;4.60;;;15.80;99.90;;;;;;4966256;28;20125;-89
2021/08/13 00:11:38;;;;;;;5.35;4.85;;;15.80;99.90;;;;;;4982923;28;20097;-88
2021/08/13 00:14:06;;;;;;;6.40;5.80;;;15.80;99.90;;;;;;4989560;28;20054;-89
2021/08/13 00:16:33;;;;;;;5.10;4.60;;;15.90;99.90;;;;;;4984573;28;20097;-89
2021/08/13 00:19:01;;;;;;;7.47;5.15;;;15.90;99.90;;;;;;4983152;28;20057;-88
2021/08/13 00:21:29;;;;;;;5.85;4.93;;;15.90;99.90;;;;;;4983178;28;20054;-89
2021/08/13 00:23:59;;;;;;;5.95;5.55;;;15.80;99.90;;;;;;4986751;28;20050;-88
2021/08/13 00:26:29;;;;;;;5.35;4.93;;;15.80;99.90;;;;;;4974535;28;20074;-88
2021/08/13 00:28:56;;;;;;;5.85;5.40;;;15.80;99.90;;;;;;4984511;28;20047;-88
2021/08/13 00:31:23;;;;;;;7.07;6.18;;;15.80;99.90;;;;;;4985682;28;20093;-88
2021/08/13 00:33:51;;;;;;;6.55;5.93;;;15.70;99.90;;;;;;4985305;28;20050;-88
2021/08/13 00:36:19;;;;;;;5.47;5.07;;;15.70;99.90;;;;;;4972813;28;20050;-88
2021/08/13 00:38:46;;;;;;;6.05;4.72;;;15.70;99.90;;;;;;4987329;28;20096;-88
2021/08/13 00:41:14;;;;;;;5.07;4.57;;;15.70;99.90;;;;;;4978692;28;20178;-88
2021/08/13 00:43:42;;;;;;;7.13;6.38;;;15.70;99.90;;;;;;4969280;28;20050;-88
2021/08/13 00:46:09;;;;;;;5.28;4.88;;;15.70;99.90;;;;;;4984331;28;20105;-89
2021/08/13 00:48:49;;;;;;;5.38;4.88;;;15.70;99.90;;;;;;4985858;28;20226;-89
2021/08/13 00:51:39;;;;;;;5.93;5.43;;;15.70;99.90;;;;;;4984537;28;20053;-88
2021/08/13 00:54:10;;;;;;;6.57;5.93;;;15.70;99.90;;;;;;4987497;28;20054;-89
2021/08/13 00:56:45;;;;;;;5.90;5.38;;;15.70;99.90;;;;;;4986941;28;20054;-89
2021/08/13 00:59:31;;;;;;;5.45;4.95;;;15.70;99.90;;;;;;4984729;28;20069;-89
2021/08/13 01:02:10;;;;;;;5.13;4.43;;;15.70;99.90;;;;;;4983707;28;20053;-89
2021/08/13 01:04:38;;;;;;;6.40;5.90;;;15.60;99.90;;;;;;4969135;28;20082;-89
2021/08/13 01:07:17;;;;;;;6.65;6.05;;;15.70;99.90;;;;;;4970335;28;20112;-89
2021/08/13 01:09:45;;;;;;;6.18;5.68;;;15.70;99.90;;;;;;4984231;28;20054;-89
2021/08/13 01:12:25;;;;;;;7.40;6.55;;;15.70;99.90;;;;;;4997234;28;20046;-89
2021/08/13 01:14:59;;;;;;;7.35;6.65;;;15.70;99.90;;;;;;4972640;28;20042;-89
2021/08/13 01:17:35;;;;;;;6.45;5.85;;;15.70;99.90;;;;;;4983683;28;20069;-88
2021/08/13 01:20:29;;;;;;;6.32;5.82;;;15.70;99.90;;;;;;5001686;28;20043;-88
2021/08/13 01:23:05;;;;;;;6.38;5.72;;;15.70;99.90;;;;;;4999780;28;20092;-89
2021/08/13 01:25:36;;;;;;;6.07;5.57;;;15.70;99.90;;;;;;4982860;28;20128;-89
2021/08/13 01:28:13;;;;;;;6.38;5.78;;;15.60;99.90;;;;;;4977068;28;20162;-88
2021/08/13 01:30:40;;;;;;;6.43;5.38;;;15.60;99.90;;;;;;4962344;28;20408;-88
2021/08/13 01:33:09;;;;;;;6.28;5.78;;;15.60;99.90;;;;;;4966425;28;20042;-88
2021/08/13 01:35:47;;;;;;;8.07;7.38;;;15.60;99.90;;;;;;4977217;28;20050;-89
2021/08/13 01:38:24;;;;;;;6.78;6.18;;;15.60;99.90;;;;;;4986426;28;20046;-89
2021/08/13 01:40:58;;;;;;;;;;;15.50;99.90;;;;;;4984068;28;20046;-88
2021/08/13 01:43:27;;;;;;;6.32;5.75;;;15.50;99.90;;;;;;4964734;28;20009;-88
2021/08/13 01:45:58;;;;;;;7.38;6.72;;;15.50;99.90;;;;;;4961554;28;20125;-88
2021/08/13 01:48:28;;;;;;;6.18;5.63;;;15.50;99.90;;;;;;4977160;28;20061;-88
2021/08/13 01:50:56;;;;;;;7.68;7.05;;;15.50;99.90;;;;;;4965724;28;20058;-88
2021/08/13 01:53:24;;;;;;;7.55;6.85;;;15.40;99.90;;;;;;4986609;28;20074;-88
2021/08/13 01:55:56;;;;;;;6.95;6.00;;;15.40;99.90;;;;;;4981942;28;20042;-88
2021/08/13 01:58:26;;;;;;;6.55;5.95;;;15.40;99.90;;;;;;4986128;28;20054;-88
2021/08/13 02:00:54;;;;;;;7.60;6.85;;;15.40;99.90;;;;;;4983030;28;20476;-88
2021/08/13 02:03:22;;;;;;;7.18;6.50;;;15.40;99.90;;;;;;4983766;28;20705;-88
2021/08/13 02:05:52;;;;;;;7.53;5.95;;;15.40;99.90;;;;;;4983679;28;20732;-88
2021/08/13 02:08:20;;;;;;;;;;;15.40;99.90;;;;;;4977564;28;20051;-88
2021/08/13 02:10:49;;;;;;;6.95;6.35;;;15.40;99.90;;;;;;4961765;28;19977;-89
2021/08/13 02:13:18;;;;;;;6.65;6.05;;;15.40;99.90;;;;;;4963981;28;20047;-88
2021/08/13 02:15:59;;;;;;;6.90;6.03;;;15.40;99.90;;;;;;4999448;28;20048;-88
2021/08/13 02:18:29;;;;;;;7.47;6.78;;;15.40;99.90;;;;;;4978197;28;20067;-88
2021/08/13 02:21:02;;;;;;;7.28;6.03;;;15.40;99.90;;;;;;4979346;28;20034;-88
2021/08/13 02:23:32;;;;;;;7.28;6.50;;;15.40;99.90;;;;;;4978846;28;20077;-88
2021/08/13 02:26:03;;;;;;;8.02;6.88;;;15.40;99.90;;;;;;4998793;28;20034;-88
2021/08/13 02:28:31;;;;;;;7.50;6.53;;;15.40;99.90;;;;;;4969463;28;20117;-88
2021/08/13 02:30:58;;;;;;;7.20;6.50;;;15.40;99.90;;;;;;4966649;28;20074;-88
2021/08/13 02:33:27;;;;;;;9.05;8.13;;;15.40;99.90;;;;;;4981788;28;20047;-88
2021/08/13 02:36:07;;;;;;;6.50;5.90;;;15.50;99.90;;;;;;4984507;28;20129;-88
2021/08/13 02:39:02;;;;;;;7.05;6.45;;;15.50;99.90;;;;;;4998189;28;20038;-88
2021/08/13 02:41:35;;;;;;;7.95;6.45;;;15.40;99.90;;;;;;4960948;28;20504;-88
2021/08/13 02:44:07;;;;;;;8.27;7.03;;;15.40;99.90;;;;;;4978724;28;20042;-88
2021/08/13 02:46:45;;;;;;;7.57;6.88;;;15.40;99.90;;;;;;4981517;28;20062;-90
2021/08/13 02:49:13;;;;;;;9.23;6.32;;;15.50;99.90;;;;;;4996233;28;20054;-89
2021/08/13 02:51:42;;;;;;;8.15;7.40;;;15.50;99.90;;;;;;4960644;28;20089;-89
2021/08/13 02:54:17;;;;;;;7.38;6.68;;;15.50;99.90;;;;;;4972461;28;20042;-89
2021/08/13 02:56:47;;;;;;;7.05;6.40;;;15.50;99.90;;;;;;4969606;28;20043;-89
2021/08/13 02:59:18;;;;;;;9.23;7.07;;;15.50;99.90;;;;;;4996443;28;20089;-89
2021/08/13 03:01:46;;;;;;;;;;;15.50;99.90;;;;;;4964314;28;21008;-90
2021/08/13 03:04:15;;;;;;;8.25;7.35;;;15.40;99.90;;;;;;4973722;28;19992;-90
2021/08/13 03:06:45;;;;;;;7.88;7.07;;;15.50;99.90;;;;;;4990832;28;20054;-89
2021/08/13 03:09:15;;;;;;;6.93;6.30;;;15.40;99.90;;;;;;4986982;28;20046;-89
2021/08/13 03:11:44;;;;;;;7.60;6.93;;;15.40;99.90;;;;;;4972192;28;20050;-90
2021/08/13 03:14:16;;;;;;;7.93;7.10;;;15.40;99.90;;;;;;4985072;28;20137;-90
2021/08/13 03:16:43;;;;;;;7.45;6.45;;;15.40;99.90;;;;;;4986997;28;20038;-89
2021/08/13 03:19:10;;;;;;;5.93;5.45;;;15.40;99.90;;;;;;4982774;28;20077;-89
2021/08/13 03:21:39;;;;;;;6.80;5.80;;;15.40;99.90;;;;;;4967586;28;20046;-89
2021/08/13 03:24:07;;;;;;;6.97;6.18;;;15.30;99.90;;;;;;4987073;28;20560;-89
2021/08/13 03:26:37;;;;;;;6.07;5.57;;;15.30;99.90;;;;;;4968823;28;20069;-89
2021/08/13 03:29:09;;;;;;;7.03;6.30;;;15.30;99.90;;;;;;4973501;28;20105;-90
2021/08/13 03:31:42;;;;;;;6.43;5.88;;;15.30;99.90;;;;;;4968925;28;20046;-90
2021/08/13 03:34:11;;;;;;;8.52;7.75;;;15.40;99.90;;;;;;4987185;28;20054;-89
2021/08/13 03:36:38;;;;;;;8.82;7.53;;;15.40;99.90;;;;;;4987984;28;20575;-89
2021/08/13 03:39:08;;;;;;;6.47;5.78;;;15.40;99.90;;;;;;4984260;28;20046;-89
2021/08/13 03:41:38;;;;;;;7.07;6.47;;;15.40;99.90;;;;;;4963186;28;20454;-88
2021/08/13 03:44:07;;;;;;;7.00;6.40;;;15.50;99.90;;;;;;4985997;28;20042;-88
2021/08/13 03:46:36;;;;;;;7.25;6.55;;;15.50;99.90;;;;;;4970099;28;20420;-89
2021/08/13 03:49:06;;;;;;;8.40;7.53;;;15.50;99.90;;;;;;4965929;28;20074;-89
2021/08/13 03:51:34;;;;;;;6.43;5.82;;;15.60;99.90;;;;;;4964428;28;20155;-89
2021/08/13 03:54:02;;;;;;;7.57;6.80;;;15.60;99.90;;;;;;4950030;28;20046;-89
2021/08/13 03:56:30;;;;;;;7.05;6.45;;;15.70;99.90;;;;;;4975193;28;20042;-89
2021/08/13 03:58:57;;;;;;;7.35;6.75;;;15.70;99.90;;;;;;4983904;28;20074;-89
2021/08/13 04:01:24;;;;;;;7.60;6.90;;;15.80;99.90;;;;;;4986198;28;20388;-89
2021/08/13 04:03:51;;;;;;;8.88;7.38;;;15.80;99.90;;;;;;4973904;28;20051;-89
2021/08/13 04:06:19;;;;;;;7.93;7.15;;;15.90;99.90;;;;;;4968945;28;20043;-89
2021/08/13 04:08:46;;;;;;;7.85;7.10;;;15.90;99.90;;;;;;4975832;28;20561;-90
2021/08/13 04:11:13;;;;;;;8.23;7.43;;;15.90;99.90;;;;;;4968195;28;20625;-89
2021/08/13 04:13:47;;;;;;;8.88;6.88;;;16.00;99.90;;;;;;5001711;28;20042;-89
2021/08/13 04:16:14;;;;;;;7.65;6.95;;;16.00;99.90;;;;;;4966494;28;20054;-89
2021/08/13 04:18:41;;;;;;;7.70;7.00;;;16.20;99.90;;;;;;4984347;28;20096;-89
2021/08/13 04:21:09;;;;;;;7.70;7.00;;;16.20;99.90;;;;;;4989165;28;20118;-89
2021/08/13 04:23:36;;;;;;;7.70;6.70;;;16.30;99.90;;;;;;4969289;28;20399;-90
2021/08/13 04:26:03;;;;;;;7.63;6.63;;;16.30;99.90;;;;;;4987896;28;20050;-89
2021/08/13 04:28:31;;;;;;;8.52;7.70;;;16.40;99.90;;;;;;4982470;28;20120;-89
2021/08/13 04:30:59;;;;;;;7.43;6.72;;;16.50;99.90;;;;;;4988408;28;20042;-89
2021/08/13 04:33:27;;;;;;;7.35;6.65;;;16.50;99.90;;;;;;4985519;28;20045;-89
2021/08/13 04:36:07;;;;;;;10.55;7.00;;;16.60;99.90;;;;;;4973256;28;20145;-89
2021/08/13 04:38:34;;;;;;;6.13;5.53;;;16.70;99.90;;;;;;4978827;28;20132;-90
2021/08/13 04:41:02;;;;;;;7.55;6.85;;;16.70;99.90;;;;;;4969958;28;20126;-89
2021/08/13 04:43:29;;;;;;;9.13;8.23;;;16.80;99.90;;;;;;4981855;28;20034;-90
2021/08/13 04:45:56;;;;;;;8.27;7.43;;;16.80;99.90;;;;;;4986518;28;20064;-89
2021/08/13 04:48:23;;;;;;;7.05;6.38;;;16.90;99.90;;;;;;4967649;28;20047;-89
2021/08/13 04:50:52;;;;;;;6.72;5.72;;;17.00;99.90;;;;;;4975805;28;20888;-89
2021/08/13 04:53:19;;;;;;;8.45;6.80;;;17.10;99.90;;;;;;4984328;28;20046;-89
2021/08/13 04:55:46;;;;;;;6.88;6.28;;;17.10;99.90;;;;;;4986857;28;20536;-89
2021/08/13 04:58:14;;;;;;;6.47;5.75;;;17.10;99.90;;;;;;4962445;28;20046;-89
2021/08/13 05:00:43;;;;;;;7.35;6.18;;;17.20;99.90;;;;;;4976973;28;20472;-87
2021/08/13 05:03:13;;;;;;;20.15;7.47;;;17.20;99.90;;;;;;4968528;28;20153;-86
2021/08/13 05:05:49;;;;;;;6.70;5.95;;;17.30;99.90;;;;;;4970528;28;20046;-86
2021/08/13 05:08:17;;;;;;;6.32;5.82;;;17.40;99.90;;;;;;4983751;28;20049;-86
2021/08/13 05:10:45;;;;;;;49.90;11.10;;;17.40;99.90;;;;;;4986020;28;20492;-87
2021/08/13 05:13:17;;;;;;;26.40;7.72;;;17.40;99.90;;;;;;4951773;28;20117;-86
2021/08/13 05:15:44;;;;;;;7.32;6.53;;;17.50;99.90;;;;;;4988392;28;20046;-86
2021/08/13 05:18:12;;;;;;;12.38;7.28;;;17.50;99.90;;;;;;4963836;28;20464;-87
2021/08/13 05:20:39;;;;;;;9.30;8.10;;;17.60;99.90;;;;;;4957060;28;20094;-86
2021/08/13 05:23:08;;;;;;;6.72;6.03;;;17.60;99.90;;;;;;4981423;28;20113;-86
2021/08/13 05:25:35;;;;;;;11.38;8.20;;;17.60;99.90;;;;;;4983003;28;20426;-86
2021/08/13 05:28:04;;;;;;;6.70;5.45;;;17.70;99.90;;;;;;4975945;28;20043;-86
2021/08/13 05:30:34;;;;;;;7.60;6.85;;;17.70;99.90;;;;;;4985899;28;20050;-87
2021/08/13 05:33:02;;;;;;;7.70;5.97;;;17.70;99.90;;;;;;4988698;28;20468;-86
2021/08/13 05:35:29;;;;;;;11.27;7.82;;;17.70;99.90;;;;;;4984480;28;20038;-86
2021/08/13 05:38:01;;;;;;;5.68;5.00;;;17.80;99.90;;;;;;4982658;28;20147;-87
2021/08/13 05:40:29;;;;;;;8.80;6.88;;;17.80;99.90;;;;;;4984334;28;20050;-87
2021/08/13 05:43:01;;;;;;;8.93;6.38;;;17.80;99.90;;;;;;4984363;28;20042;-87
2021/08/13 05:45:30;;;;;;;8.50;6.80;;;17.90;99.90;;;;;;4986011;28;20053;-86
2021/08/13 05:47:57;;;;;;;7.28;6.55;;;18.00;99.90;;;;;;4986473;28;20378;-86
2021/08/13 05:50:24;;;;;;;7.10;6.53;;;18.00;99.90;;;;;;4984201;28;20057;-86
2021/08/13 05:52:52;;;;;;;8.05;6.88;;;18.10;99.90;;;;;;4969309;28;20555;-86
2021/08/13 05:55:19;;;;;;;13.27;6.45;;;18.10;99.90;;;;;;4986731;28;20046;-87
2021/08/13 05:57:46;;;;;;;83.68;15.52;;;18.20;99.90;;;;;;4986993;28;20050;-87
2021/08/13 06:00:16;;;;;;;25.20;7.22;;;18.30;99.90;;;;;;4978491;28;20051;-86
2021/08/13 06:03:00;;;;;;;7.38;6.47;;;18.40;99.90;;;;;;4970566;28;20082;-86
2021/08/13 06:05:31;;;;;;;8.38;6.07;;;18.40;99.90;;;;;;4969559;28;20058;-87
2021/08/13 06:08:00;;;;;;;5.82;5.32;;;18.50;99.90;;;;;;4977752;28;20053;-86
2021/08/13 06:10:27;;;;;;;8.25;7.40;;;18.60;99.90;;;;;;4992612;28;20085;-86
2021/08/13 06:12:54;;;;;;;6.60;5.57;;;18.70;99.90;;;;;;4983780;28;20397;-84
2021/08/13 06:15:22;;;;;;;5.38;4.97;;;18.70;99.90;;;;;;4986003;28;20115;-85
2021/08/13 06:17:49;;;;;;;7.93;5.72;;;18.80;99.90;;;;;;4983868;28;20054;-86
2021/08/13 06:20:22;;;;;;;6.40;5.80;;;18.90;99.90;;;;;;4955964;28;20153;-87
2021/08/13 06:23:01;;;;;;;10.15;5.93;;;18.90;99.90;;;;;;4967188;28;20046;-86
2021/08/13 06:25:28;;;;;;;4.47;4.15;;;19.00;99.90;;;;;;4968868;28;20053;-86
2021/08/13 06:27:56;;;;;;;9.52;4.93;;;19.00;99.90;;;;;;4981991;28;20042;-87
2021/08/13 06:30:23;;;;;;;17.27;7.22;;;19.00;99.90;;;;;;4986611;28;20061;-87
2021/08/13 06:32:53;;;;;;;11.82;6.60;;;18.90;99.90;;;;;;4983318;28;20042;-86
2021/08/13 06:35:23;;;;;;;10.25;7.55;;;18.90;99.90;;;;;;4980465;28;20476;-86
2021/08/13 06:37:54;;;;;;;7.82;5.47;;;18.90;99.90;;;;;;4982333;28;20121;-87
2021/08/13 06:40:24;;;;;;;6.78;5.65;;;19.00;99.90;;;;;;4992187;28;21057;-87
2021/08/13 06:42:52;;;;;;;7.45;5.47;;;19.00;99.90;;;;;;5003239;28;20068;-87
2021/08/13 06:45:23;;;;;;;6.37;5.23;;;19.00;99.90;;;;;;5002527;28;20065;-87
2021/08/13 06:47:51;;;;;;;;;;;19.00;99.90;;;;;;4989523;28;20101;-87
2021/08/13 06:50:20;;;;;;;7.43;6.72;;;19.10;99.90;;;;;;5002876;28;19996;-87
2021/08/13 06:52:50;;;;;;;5.68;5.18;;;19.10;99.90;;;;;;4986448;28;20046;-87
2021/08/13 06:55:17;;;;;;;7.47;5.57;;;19.20;99.90;;;;;;4987073;28;20547;-86
2021/08/13 06:57:50;;;;;;;6.75;6.10;;;19.30;99.90;;;;;;4974842;28;20047;-86
2021/08/13 07:00:17;;;;;;;6.70;6.00;;;19.40;99.90;;;;;;4990009;28;20053;-86
2021/08/13 07:02:49;;;;;;;6.25;5.70;;;19.40;99.90;;;;;;5003364;28;20054;-88
2021/08/13 07:05:20;;;;;;;7.47;5.53;;;19.50;99.90;;;;;;4954893;28;20043;-87
2021/08/13 07:07:47;;;;;;;5.53;4.97;;;19.60;99.90;;;;;;4988506;28;20062;-87
2021/08/13 07:10:16;;;;;;;5.40;4.18;;;19.70;99.90;;;;;;4972797;28;20067;-87
2021/08/13 07:12:43;;;;;;;6.15;5.53;;;19.80;99.90;;;;;;4979184;28;20596;-87
2021/08/13 07:15:11;;;;;;;6.57;4.97;;;19.90;99.90;;;;;;4965238;28;20188;-86
2021/08/13 07:17:40;;;;;;;6.03;5.53;;;20.00;99.90;;;;;;4969211;28;20044;-87
2021/08/13 07:20:07;;;;;;;7.25;4.65;;;20.10;99.90;;;;;;4973463;28;20049;-87
2021/08/13 07:22:35;;;;;;;5.20;4.70;;;20.20;99.90;;;;;;5000497;28;20145;-86
2021/08/13 07:25:02;;;;;;;6.93;4.60;;;20.30;99.90;;;;;;4994405;28;20046;-86
2021/08/13 07:27:29;;;;;;;4.53;4.13;;;20.50;99.90;;;;;;4957526;28;20054;-86
2021/08/13 07:29:56;;;;;;;5.63;3.97;;;20.60;99.90;;;;;;4983622;28;20572;-87
2021/08/13 07:32:25;;;;;;;5.15;4.03;;;20.70;99.90;;;;;;4971811;28;20053;-87
2021/08/13 07:34:53;;;;;;;4.00;3.60;;;20.80;99.90;;;;;;4990767;28;20050;-86
2021/08/13 07:37:27;;;;;;;3.67;3.38;;;20.80;99.90;;;;;;4987760;28;20438;-87
2021/08/13 07:39:54;;;;;;;4.00;3.70;;;20.80;99.90;;;;;;4974672;28;20517;-86
2021/08/13 07:42:26;;;;;;;4.43;3.83;;;20.70;99.90;;;;;;4990093;28;20045;-86
2021/08/13 07:44:54;;;;;;;5.05;3.47;;;20.80;99.90;;;;;;4972561;28;20074;-86
2021/08/13 07:47:23;;;;;;;4.88;3.60;;;20.80;99.90;;;;;;4973270;28;20050;-86
2021/08/13 07:49:50;;;;;;;4.10;3.80;;;20.80;99.90;;;;;;4991346;28;20045;-86
2021/08/13 07:52:19;;;;;;;4.00;3.70;;;20.90;99.90;;;;;;4967411;28;20062;-87
2021/08/13 07:54:46;;;;;;;4.10;3.60;;;21.00;99.90;;;;;;4968655;28;20463;-87
2021/08/13 07:57:16;;;;;;;3.92;3.63;;;21.00;99.90;;;;;;4985566;28;20054;-86
2021/08/13 07:59:43;;;;;;;3.47;3.25;;;21.10;99.90;;;;;;4988919;28;20054;-86
2021/08/13 08:02:12;;;;;;;5.70;3.30;;;21.20;99.90;;;;;;4972158;28;20115;-85
2021/08/13 08:04:39;;;;;;;4.05;3.15;;;21.30;99.90;;;;;;4988649;28;20546;-86
2021/08/13 08:07:06;;;;;;;5.78;4.10;;;21.30;99.90;;;;;;4989025;28;20050;-86
2021/08/13 08:09:33;;;;;;;4.72;3.03;;;21.40;99.90;;;;;;4986684;28;20057;-86
2021/08/13 08:12:00;;;;;;;3.92;3.33;;;21.50;99.90;;;;;;4988996;28;20053;-86
2021/08/13 08:14:27;;;;;;;4.03;3.63;;;21.60;99.90;;;;;;4991352;28;20042;-86
2021/08/13 08:16:55;;;;;;;3.53;3.22;;;21.70;99.90;;;;;;4987994;28;20527;-85
2021/08/13 08:19:22;;;;;;;3.72;3.15;;;21.70;99.90;;;;;;4986975;28;20092;-86
2021/08/13 08:21:49;;;;;;;6.05;5.40;;;21.80;99.90;;;;;;4990501;28;20111;-86
2021/08/13 08:24:16;;;;;;;5.57;3.85;;;21.90;99.90;;;;;;4985863;28;20138;-86
2021/08/13 08:26:44;;;;;;;3.15;2.78;;;22.00;99.90;;;;;;4978586;28;20039;-86
2021/08/13 08:29:12;;;;;;;3.50;3.20;;;22.00;99.90;;;;;;4984656;28;20129;-87
2021/08/13 08:31:40;;;;;;;3.97;3.20;;;22.10;99.90;;;;;;4984082;28;20437;-87
2021/08/13 08:34:07;;;;;;;3.65;3.20;;;22.20;99.90;;;;;;4987564;28;20068;-88
2021/08/13 08:36:34;;;;;;;3.15;2.90;;;22.20;99.90;;;;;;4981977;28;20084;-87
2021/08/13 08:39:03;;;;;;;3.70;2.85;;;22.20;99.90;;;;;;4986019;28;20145;-87
2021/08/13 08:41:30;;;;;;;3.65;3.35;;;22.20;99.90;;;;;;4983029;28;20050;-87
2021/08/13 08:43:57;;;;;;;3.22;2.97;;;22.10;99.90;;;;;;4988113;28;20137;-89
2021/08/13 08:46:24;;;;;;;4.13;3.30;;;22.20;99.90;;;;;;4986521;28;20094;-88
2021/08/13 08:48:53;;;;;;;3.38;3.08;;;22.20;99.90;;;;;;4988196;28;20526;-90
2021/08/13 08:51:21;;;;;;;4.72;2.83;;;22.20;99.90;;;;;;4980839;28;20047;-88
2021/08/13 08:53:54;;;;;;;4.97;3.25;;;22.20;99.90;;;;;;4988717;28;20057;-90
2021/08/13 08:56:24;;;;;;;3.33;2.58;;;22.30;99.90;;;;;;4995871;28;20042;-87
2021/08/13 08:58:52;;;;;;;4.80;2.95;;;22.30;99.90;;;;;;4988887;28;20054;-87
2021/08/13 09:01:19;;;;;;;11.15;3.95;;;22.30;99.90;;;;;;4964414;28;20052;-87
2021/08/13 09:03:46;;;;;;;4.15;2.42;;;22.40;99.90;;;;;;4985928;28;20050;-87
2021/08/13 09:06:16;;;;;;;3.17;2.45;;;22.40;99.90;;;;;;4985525;28;20054;-87
2021/08/13 09:08:44;;;;;;;3.55;3.25;;;22.50;99.90;;;;;;4982813;28;20147;-87
2021/08/13 09:11:12;;;;;;;3.42;2.92;;;22.60;99.90;;;;;;4987942;28;20038;-87
2021/08/13 09:13:39;;;;;;;4.25;3.88;;;22.60;99.90;;;;;;4985410;28;20057;-87
2021/08/13 09:16:14;;;;;;;3.25;3.03;;;22.60;99.90;;;;;;4978417;28;20138;-87
2021/08/13 09:18:43;;;;;;;4.70;3.03;;;22.60;99.90;;;;;;4978491;28;20416;-87
2021/08/13 09:21:18;;;;;;;6.15;3.83;;;22.70;99.90;;;;;;4999659;28;20467;-86
2021/08/13 09:23:47;;;;;;;3.38;2.85;;;22.70;99.90;;;;;;4965396;28;20130;-86
2021/08/13 09:26:22;;;;;;;4.75;2.72;;;22.80;99.90;;;;;;4962483;28;21475;-86
2021/08/13 09:29:09;;;;;;;3.05;2.80;;;22.80;99.90;;;;;;4979182;28;20134;-86
2021/08/13 09:31:54;;;;;;;5.35;3.38;;;22.90;99.90;;;;;;5000940;28;20054;-87
2021/08/13 09:34:36;;;;;;;2.97;2.75;;;22.90;99.90;;;;;;4986446;28;20129;-87
2021/08/13 09:37:16;;;;;;;3.48;2.55;;;22.80;99.90;;;;;;3080853;28;10002115;-86
2021/08/13 09:39:43;;;;;;;4.03;3.03;;;22.70;99.90;;;;;;3609246;28;10002458;-86
2021/08/13 09:42:10;;;;;;;4.05;2.10;;;22.70;99.90;;;;;;4986040;28;20046;-86
2021/08/13 09:44:39;;;;;;;2.70;2.45;;;22.80;99.90;;;;;;4967829;28;20046;-86
2021/08/13 09:47:14;;;;;;;2.67;2.35;;;22.90;99.90;;;;;;4981754;28;20586;-86
2021/08/13 09:49:53;;;;;;;2.92;2.22;;;22.90;99.90;;;;;;5001018;28;20038;-87
2021/08/13 09:52:21;;;;;;;2.65;2.20;;;22.80;99.90;;;;;;4958214;28;20700;-87
2021/08/13 09:55:04;;;;;;;2.28;2.00;;;22.90;99.90;;;;;;4979411;28;20046;-87
2021/08/13 09:57:41;;;;;;;2.65;2.45;;;22.90;99.90;;;;;;4963016;28;20050;-87
2021/08/13 10:00:09;;;;;;;3.78;2.47;;;23.10;99.90;;;;;;4976134;28;20043;-87
2021/08/13 10:02:44;;;;;;;2.85;2.28;;;23.10;99.90;;;;;;4975684;28;20054;-86
2021/08/13 10:05:25;;;;;;;3.45;1.70;;;23.20;99.90;;;;;;4984646;28;20073;-87
2021/08/13 10:08:01;;;;;;;3.17;2.08;;;23.20;99.90;;;;;;4983782;28;20042;-87
2021/08/13 10:10:30;;;;;;;2.00;1.90;;;23.30;99.90;;;;;;4982884;28;20141;-87
2021/08/13 10:13:02;;;;;;;1.85;1.75;;;23.30;99.90;;;;;;4985045;28;20049;-86
2021/08/13 10:15:32;;;;;;;2.47;2.10;;;23.30;99.90;;;;;;4983786;28;20964;-86
2021/08/13 10:18:03;;;;;;;4.40;2.25;;;23.40;99.90;;;;;;4977954;28;20041;-86
2021/08/13 10:20:34;;;;;;;2.95;2.45;;;23.50;99.90;;;;;;4976202;28;20046;-86
2021/08/13 10:23:02;;;;;;;2.55;2.35;;;23.70;99.90;;;;;;4982138;28;20041;-87
2021/08/13 10:25:30;;;;;;;4.38;3.92;;;23.80;99.90;;;;;;4978366;28;20042;-87
2021/08/13 10:27:58;;;;;;;3.65;1.95;;;23.70;99.90;;;;;;4965272;28;20042;-87
2021/08/13 10:30:32;;;;;;;2.10;2.00;;;23.50;99.90;;;;;;4966948;28;20043;-86
2021/08/13 10:33:07;;;;;;;3.85;2.15;;;23.60;99.90;;;;;;4954917;28;20054;-87
2021/08/13 10:35:52;;;;;;;2.15;1.70;;;23.60;99.90;;;;;;4982188;28;20657;-87
2021/08/13 10:38:21;;;;;;;2.45;1.90;;;23.80;99.90;;;;;;4975067;28;20078;-87
2021/08/13 10:40:50;;;;;;;1.70;1.60;;;23.90;99.90;;;;;;4978737;28;20364;-87
2021/08/13 10:43:22;;;;;;;2.45;2.25;;;23.70;99.90;;;;;;4984969;28;20097;-87
2021/08/13 10:45:53;;;;;;;2.80;1.95;;;23.60;99.90;;;;;;4984275;28;20117;-87
2021/08/13 10:48:26;;;;;;;1.73;1.63;;;23.70;99.90;;;;;;5000266;28;20456;-87
2021/08/13 10:50:59;;;;;;;2.15;1.90;;;23.70;99.90;;;;;;4982641;28;20088;-87
2021/08/13 10:53:31;;;;;;;2.42;2.22;;;23.70;99.90;;;;;;4999751;28;20461;-87
2021/08/13 10:56:05;;;;;;;1.65;1.55;;;23.60;99.90;;;;;;4968486;28;20042;-87
2021/08/13 10:58:37;;;;;;;1.55;1.45;;;23.70;99.90;;;;;;4982540;28;20591;-86
2021/08/13 11:01:14;;;;;;;1.80;1.65;;;23.70;99.90;;;;;;4984882;28;20038;-88
2021/08/13 11:03:55;;;;;;;1.77;1.17;;;23.70;99.90;;;;;;4982063;28;20046;-88
2021/08/13 11:06:37;;;;;;;1.77;1.67;;;23.70;99.90;;;;;;4981950;28;20054;-86
2021/08/13 11:09:21;;;;;;;3.65;2.10;;;23.70;99.90;;;;;;4983636;28;20046;-86
2021/08/13 11:11:55;;;;;;;1.35;1.25;;;23.70;99.90;;;;;;4986100;28;20047;-86
2021/08/13 11:14:43;;;;;;;2.03;1.83;;;23.80;99.90;;;;;;4986812;28;20050;-86
2021/08/13 11:17:43;;;;;;;1.50;1.40;;;23.80;99.90;;;;;;4949203;28;20097;-86
2021/08/13 11:20:15;;;;;;;2.58;1.85;;;24.00;99.90;;;;;;4966799;28;20055;-86
2021/08/13 11:23:02;;;;;;;1.90;1.80;;;24.20;99.90;;;;;;4999654;28;20094;-86
2021/08/13 11:25:49;;;;;;;1.38;1.27;;;24.20;99.40;;;;;;4983435;28;20114;-86
2021/08/13 11:28:31;;;;;;;2.13;1.25;;;24.30;99.90;;;;;;5003312;28;20042;-87
2021/08/13 11:31:01;;;;;;;1.90;1.80;;;24.40;99.00;;;;;;4980277;28;20046;-87
2021/08/13 11:33:32;;;;;;;8.05;3.63;;;24.40;97.10;;;;;;4970357;28;20057;-88
2021/08/13 11:36:02;;;;;;;3.30;2.38;;;24.20;98.40;;;;;;4975250;28;20035;-88
2021/08/13 11:38:41;;;;;;;2.22;2.03;;;24.10;97.70;;;;;;4975905;28;20511;-87
2021/08/13 11:41:28;;;;;;;5.18;2.88;;;24.00;98.30;;;;;;4987201;28;20043;-87
2021/08/13 11:44:03;;;;;;;1.48;1.25;;;24.00;97.70;;;;;;4984813;28;20132;-86
2021/08/13 11:46:42;;;;;;;9.33;3.17;;;24.00;97.60;;;;;;4989198;28;20158;-86
2021/08/13 11:49:14;;;;;;;1.42;0.80;;;24.10;97.80;;;;;;4986086;28;20170;-86
2021/08/13 11:51:44;;;;;;;1.48;1.38;;;24.40;97.90;;;;;;4985647;28;20121;-85
2021/08/13 11:54:27;;;;;;;2.15;1.58;;;24.50;98.20;;;;;;5003207;28;20058;-87
2021/08/13 11:57:20;;;;;;;2.22;1.83;;;24.60;98.60;;;;;;4973951;28;20053;-87
2021/08/13 11:59:49;;;;;;;1.83;1.27;;;24.60;97.70;;;;;;4963934;28;20094;-86
2021/08/13 12:02:36;;;;;;;2.58;1.23;;;24.50;97.40;;;;;;4953203;28;20054;-87
2021/08/13 12:05:09;;;;;;;1.45;1.35;;;24.50;97.70;;;;;;4982809;28;20046;-87
2021/08/13 12:07:37;;;;;;;1.40;1.30;;;24.60;97.70;;;;;;4951138;28;20133;-87
2021/08/13 12:10:16;;;;;;;1.75;1.52;;;24.80;98.30;;;;;;4986888;28;20131;-87
2021/08/13 12:12:44;;;;;;;5.07;1.58;;;24.80;97.80;;;;;;4971643;28;20049;-87
2021/08/13 12:15:13;;;;;;;1.42;1.13;;;24.80;96.70;;;;;;4986513;28;20388;-87
2021/08/13 12:17:40;;;;;;;2.63;1.92;;;24.90;97.00;;;;;;4985953;28;20112;-88
2021/08/13 12:20:10;;;;;;;2.00;1.33;;;24.90;96.40;;;;;;4969434;28;20046;-86
2021/08/13 12:22:40;;;;;;;2.35;1.58;;;24.90;97.00;;;;;;4969424;28;20035;-88
2021/08/13 12:25:14;;;;;;;2.17;1.48;;;25.00;96.40;;;;;;5004211;28;20050;-86
2021/08/13 12:27:43;;;;;;;2.17;1.70;;;25.10;97.00;;;;;;4983788;28;20042;-87
2021/08/13 12:30:16;;;;;;;2.13;1.85;;;25.00;96.90;;;;;;4969907;28;20118;-87
2021/08/13 12:32:44;;;;;;;3.17;1.70;;;25.00;97.40;;;;;;4980974;28;20130;-87
2021/08/13 12:35:13;;;;;;;2.53;1.80;;;25.00;97.70;;;;;;4987129;28;20045;-86
2021/08/13 12:37:42;;;;;;;7.23;2.57;;;24.70;98.30;;;;;;4983533;28;20046;-87
2021/08/13 12:40:13;;;;;;;2.33;2.13;;;24.40;98.70;;;;;;4983622;28;20043;-87
2021/08/13 12:42:45;;;;;;;3.65;2.17;;;24.00;99.00;;;;;;4970604;28;20515;-87
2021/08/13 12:45:14;;;;;;;2.13;1.92;;;23.60;99.90;;;;;;5001211;28;20121;-87
2021/08/13 12:47:45;;;;;;;3.30;2.67;;;23.50;99.90;;;;;;4985662;28;20046;-86
2021/08/13 12:50:19;;;;;;;2.63;2.40;;;23.30;99.90;;;;;;4986393;28;20038;-88
2021/08/13 12:53:06;;;;;;;1.88;1.70;;;23.20;99.90;;;;;;4983593;28;20058;-87
2021/08/13 12:55:39;;;;;;;2.92;2.72;;;22.90;99.90;;;;;;5000233;28;20478;-86
2021/08/13 12:58:07;;;;;;;2.58;2.30;;;22.90;99.90;;;;;;4999725;28;20050;-87
2021/08/13 13:00:38;;;;;;;3.28;2.75;;;22.60;99.90;;;;;;4984133;28;20112;-88
2021/08/13 13:03:11;;;;;;;3.88;2.42;;;22.60;99.90;;;;;;4982263;28;20050;-87
2021/08/13 13:06:09;;;;;;;3.00;2.17;;;22.50;99.90;;;;;;4983887;28;20124;-87
2021/08/13 13:08:48;;;;;;;5.95;2.95;;;22.30;99.90;;;;;;5000244;28;20450;-87